sensor_id;sensor_type;location;lat;lon;timestamp;P1;durP1;ratioP1;P2;durP2;ratioP2
1691;SDS011;843;52.054;8.552;2023-02-26T00:02:13;3.97;;;3.17;;
1691;SDS011;843;52.054;8.552;2023-02-26T00:04:40;4.40;;;3.10;;
1691;SDS011;843;52.054;8.552;2023-02-26T00:07:07;6.43;;;3.30;;
1691;SDS011;843;52.054;8.552;2023-02-26T00:09:34;6.10;;;3.33;;
1691;SDS011;843;52.054;8.552;2023-02-26T00:12:00;3.10;;;2.70;;
1691;SDS011;843;52.054;8.552;2023-02-26T00:14:27;7.57;;;3.37;;
1691;SDS011;843;52.054;8.552;2023-02-26T00:16:56;5.63;;;3.77;;
1691;SDS011;843;52.054;8.552;2023-02-26T00:19:34;3.50;;;2.90;;
1691;SDS011;843;52.054;8.552;2023-02-26T00:22:01;8.10;;;2.80;;
1691;SDS011;843;52.054;8.552;2023-02-26T00:24:28;3.87;;;2.47;;
1691;SDS011;843;52.054;8.552;2023-02-26T00:26:55;3.93;;;2.83;;
1691;SDS011;843;52.054;8.552;2023-02-26T00:29:22;4.70;;;4.17;;
1691;SDS011;843;52.054;8.552;2023-02-26T00:31:49;4.23;;;2.70;;
1691;SDS011;843;52.054;8.552;2023-02-26T00:34:16;6.43;;;2.37;;
1691;SDS011;843;52.054;8.552;2023-02-26T00:36:46;2.80;;;2.60;;
1691;SDS011;843;52.054;8.552;2023-02-26T00:39:22;5.40;;;3.00;;
1691;SDS011;843;52.054;8.552;2023-02-26T00:41:56;5.53;;;2.83;;
1691;SDS011;843;52.054;8.552;2023-02-26T00:44:23;3.83;;;3.00;;
1691;SDS011;843;52.054;8.552;2023-02-26T00:46:51;5.53;;;4.03;;
1691;SDS011;843;52.054;8.552;2023-02-26T00:49:22;4.97;;;3.20;;
1691;SDS011;843;52.054;8.552;2023-02-26T00:51:54;3.20;;;2.90;;
1691;SDS011;843;52.054;8.552;2023-02-26T00:54:22;4.47;;;2.60;;
1691;SDS011;843;52.054;8.552;2023-02-26T00:56:50;5.00;;;2.67;;
1691;SDS011;843;52.054;8.552;2023-02-26T00:59:17;6.20;;;2.63;;
1691;SDS011;843;52.054;8.552;2023-02-26T01:01:44;2.53;;;2.33;;
1691;SDS011;843;52.054;8.552;2023-02-26T01:04:13;6.60;;;2.67;;
1691;SDS011;843;52.054;8.552;2023-02-26T01:06:40;4.63;;;3.07;;
1691;SDS011;843;52.054;8.552;2023-02-26T01:09:12;4.63;;;2.27;;
1691;SDS011;843;52.054;8.552;2023-02-26T01:11:43;2.43;;;2.13;;
1691;SDS011;843;52.054;8.552;2023-02-26T01:14:10;3.37;;;2.33;;
1691;SDS011;843;52.054;8.552;2023-02-26T01:16:40;3.07;;;2.13;;
1691;SDS011;843;52.054;8.552;2023-02-26T01:19:13;4.47;;;2.40;;
1691;SDS011;843;52.054;8.552;2023-02-26T01:21:46;3.60;;;2.87;;
1691;SDS011;843;52.054;8.552;2023-02-26T01:24:16;3.20;;;2.70;;
1691;SDS011;843;52.054;8.552;2023-02-26T01:26:44;5.60;;;2.90;;
1691;SDS011;843;52.054;8.552;2023-02-26T01:29:14;3.77;;;2.30;;
1691;SDS011;843;52.054;8.552;2023-02-26T01:31:41;3.93;;;2.60;;
1691;SDS011;843;52.054;8.552;2023-02-26T01:34:14;6.67;;;2.50;;
1691;SDS011;843;52.054;8.552;2023-02-26T01:36:46;2.90;;;2.63;;
1691;SDS011;843;52.054;8.552;2023-02-26T01:39:23;5.20;;;2.50;;
1691;SDS011;843;52.054;8.552;2023-02-26T01:41:53;4.73;;;2.70;;
1691;SDS011;843;52.054;8.552;2023-02-26T01:44:22;2.10;;;1.90;;
1691;SDS011;843;52.054;8.552;2023-02-26T01:47:03;7.53;;;3.90;;
1691;SDS011;843;52.054;8.552;2023-02-26T01:49:31;2.03;;;1.93;;
1691;SDS011;843;52.054;8.552;2023-02-26T01:51:59;3.30;;;2.13;;
1691;SDS011;843;52.054;8.552;2023-02-26T01:54:29;5.53;;;2.40;;
1691;SDS011;843;52.054;8.552;2023-02-26T01:56:58;2.47;;;2.07;;
1691;SDS011;843;52.054;8.552;2023-02-26T01:59:29;4.37;;;1.93;;
1691;SDS011;843;52.054;8.552;2023-02-26T02:01:56;3.47;;;2.20;;
1691;SDS011;843;52.054;8.552;2023-02-26T02:04:24;6.83;;;2.20;;
1691;SDS011;843;52.054;8.552;2023-02-26T02:06:52;5.13;;;1.93;;
1691;SDS011;843;52.054;8.552;2023-02-26T02:09:19;2.90;;;1.83;;
1691;SDS011;843;52.054;8.552;2023-02-26T02:11:57;2.83;;;2.38;;
1691;SDS011;843;52.054;8.552;2023-02-26T02:14:30;5.07;;;2.03;;
1691;SDS011;843;52.054;8.552;2023-02-26T02:17:01;2.47;;;2.27;;
1691;SDS011;843;52.054;8.552;2023-02-26T02:22:45;3.00;;;1.83;;
1691;SDS011;843;52.054;8.552;2023-02-26T02:25:30;4.97;;;2.63;;
1691;SDS011;843;52.054;8.552;2023-02-26T02:28:08;2.20;;;2.00;;
1691;SDS011;843;52.054;8.552;2023-02-26T02:30:51;2.70;;;1.80;;
1691;SDS011;843;52.054;8.552;2023-02-26T02:33:25;3.72;;;2.08;;
1691;SDS011;843;52.054;8.552;2023-02-26T02:35:56;4.40;;;2.20;;
1691;SDS011;843;52.054;8.552;2023-02-26T02:38:26;2.10;;;1.67;;
1691;SDS011;843;52.054;8.552;2023-02-26T02:41:00;2.70;;;1.93;;
1691;SDS011;843;52.054;8.552;2023-02-26T02:43:31;5.70;;;2.20;;
1691;SDS011;843;52.054;8.552;2023-02-26T02:46:02;3.45;;;2.08;;
1691;SDS011;843;52.054;8.552;2023-02-26T02:48:31;3.92;;;1.90;;
1691;SDS011;843;52.054;8.552;2023-02-26T02:51:00;4.60;;;2.03;;
1691;SDS011;843;52.054;8.552;2023-02-26T02:53:29;3.17;;;2.00;;
1691;SDS011;843;52.054;8.552;2023-02-26T02:56:03;5.40;;;2.60;;
1691;SDS011;843;52.054;8.552;2023-02-26T02:58:33;3.25;;;2.08;;
1691;SDS011;843;52.054;8.552;2023-02-26T03:01:05;4.77;;;2.13;;
1691;SDS011;843;52.054;8.552;2023-02-26T03:03:35;4.32;;;2.40;;
1691;SDS011;843;52.054;8.552;2023-02-26T03:06:04;2.00;;;1.80;;
1691;SDS011;843;52.054;8.552;2023-02-26T03:08:33;2.63;;;2.20;;
1691;SDS011;843;52.054;8.552;2023-02-26T03:11:02;2.83;;;2.00;;
1691;SDS011;843;52.054;8.552;2023-02-26T03:13:29;4.30;;;1.97;;
1691;SDS011;843;52.054;8.552;2023-02-26T03:15:59;7.22;;;1.90;;
1691;SDS011;843;52.054;8.552;2023-02-26T03:18:34;3.73;;;1.80;;
1691;SDS011;843;52.054;8.552;2023-02-26T03:21:10;5.43;;;2.80;;
1691;SDS011;843;52.054;8.552;2023-02-26T03:23:42;4.93;;;2.30;;
1691;SDS011;843;52.054;8.552;2023-02-26T03:26:13;4.90;;;2.40;;
1691;SDS011;843;52.054;8.552;2023-02-26T03:28:44;2.67;;;1.70;;
1691;SDS011;843;52.054;8.552;2023-02-26T03:31:15;3.67;;;2.07;;
1691;SDS011;843;52.054;8.552;2023-02-26T03:33:46;4.00;;;2.30;;
1691;SDS011;843;52.054;8.552;2023-02-26T03:36:17;5.15;;;2.10;;
1691;SDS011;843;52.054;8.552;2023-02-26T03:38:47;3.63;;;1.88;;
1691;SDS011;843;52.054;8.552;2023-02-26T03:41:17;3.43;;;2.00;;
1691;SDS011;843;52.054;8.552;2023-02-26T03:43:49;2.88;;;2.00;;
1691;SDS011;843;52.054;8.552;2023-02-26T03:46:19;3.15;;;2.00;;
1691;SDS011;843;52.054;8.552;2023-02-26T03:48:50;2.50;;;2.13;;
1691;SDS011;843;52.054;8.552;2023-02-26T03:51:16;3.00;;;1.83;;
1691;SDS011;843;52.054;8.552;2023-02-26T03:53:46;1.77;;;1.60;;
1691;SDS011;843;52.054;8.552;2023-02-26T03:56:15;4.20;;;1.75;;
1691;SDS011;843;52.054;8.552;2023-02-26T03:58:43;2.00;;;1.80;;
1691;SDS011;843;52.054;8.552;2023-02-26T04:01:11;1.70;;;1.60;;
1691;SDS011;843;52.054;8.552;2023-02-26T04:03:41;2.95;;;2.10;;
1691;SDS011;843;52.054;8.552;2023-02-26T04:06:12;3.57;;;2.33;;
1691;SDS011;843;52.054;8.552;2023-02-26T04:08:39;2.55;;;1.90;;
1691;SDS011;843;52.054;8.552;2023-02-26T04:11:07;2.40;;;2.20;;
1691;SDS011;843;52.054;8.552;2023-02-26T04:13:35;2.10;;;1.90;;
1691;SDS011;843;52.054;8.552;2023-02-26T04:16:02;5.00;;;2.20;;
1691;SDS011;843;52.054;8.552;2023-02-26T04:18:29;3.37;;;2.37;;
1691;SDS011;843;52.054;8.552;2023-02-26T04:20:56;2.95;;;2.13;;
1691;SDS011;843;52.054;8.552;2023-02-26T04:23:24;2.90;;;2.50;;
1691;SDS011;843;52.054;8.552;2023-02-26T04:25:51;7.07;;;2.00;;
1691;SDS011;843;52.054;8.552;2023-02-26T04:28:17;2.20;;;2.00;;
1691;SDS011;843;52.054;8.552;2023-02-26T04:30:44;5.23;;;2.37;;
1691;SDS011;843;52.054;8.552;2023-02-26T04:33:11;2.92;;;2.10;;
1691;SDS011;843;52.054;8.552;2023-02-26T04:35:38;5.57;;;3.63;;
1691;SDS011;843;52.054;8.552;2023-02-26T04:38:04;3.70;;;2.53;;
1691;SDS011;843;52.054;8.552;2023-02-26T04:40:32;3.13;;;2.63;;
1691;SDS011;843;52.054;8.552;2023-02-26T04:42:59;2.78;;;1.92;;
1691;SDS011;843;52.054;8.552;2023-02-26T04:45:26;6.88;;;2.25;;
1691;SDS011;843;52.054;8.552;2023-02-26T04:47:52;3.85;;;2.60;;
1691;SDS011;843;52.054;8.552;2023-02-26T04:50:19;3.35;;;2.20;;
1691;SDS011;843;52.054;8.552;2023-02-26T04:52:46;3.05;;;2.00;;
1691;SDS011;843;52.054;8.552;2023-02-26T04:55:12;4.63;;;1.87;;
1691;SDS011;843;52.054;8.552;2023-02-26T04:57:40;4.40;;;2.22;;
1691;SDS011;843;52.054;8.552;2023-02-26T05:00:07;3.25;;;2.10;;
1691;SDS011;843;52.054;8.552;2023-02-26T05:02:35;3.57;;;2.17;;
1691;SDS011;843;52.054;8.552;2023-02-26T05:05:02;3.63;;;2.00;;
1691;SDS011;843;52.054;8.552;2023-02-26T05:07:29;2.10;;;1.90;;
1691;SDS011;843;52.054;8.552;2023-02-26T05:09:55;3.35;;;2.13;;
1691;SDS011;843;52.054;8.552;2023-02-26T05:12:22;5.33;;;2.57;;
1691;SDS011;843;52.054;8.552;2023-02-26T05:14:50;2.75;;;2.00;;
1691;SDS011;843;52.054;8.552;2023-02-26T05:17:17;2.22;;;1.55;;
1691;SDS011;843;52.054;8.552;2023-02-26T05:19:44;4.00;;;1.73;;
1691;SDS011;843;52.054;8.552;2023-02-26T05:22:10;2.97;;;1.80;;
1691;SDS011;843;52.054;8.552;2023-02-26T05:24:38;4.13;;;2.10;;
1691;SDS011;843;52.054;8.552;2023-02-26T05:27:04;2.77;;;1.70;;
1691;SDS011;843;52.054;8.552;2023-02-26T05:29:31;4.03;;;2.10;;
1691;SDS011;843;52.054;8.552;2023-02-26T05:31:59;4.43;;;1.97;;
1691;SDS011;843;52.054;8.552;2023-02-26T05:34:27;2.65;;;2.00;;
1691;SDS011;843;52.054;8.552;2023-02-26T05:36:54;3.97;;;2.03;;
1691;SDS011;843;52.054;8.552;2023-02-26T05:39:21;4.20;;;2.33;;
1691;SDS011;843;52.054;8.552;2023-02-26T05:41:47;3.00;;;1.87;;
1691;SDS011;843;52.054;8.552;2023-02-26T05:44:15;2.53;;;2.27;;
1691;SDS011;843;52.054;8.552;2023-02-26T05:46:42;6.93;;;2.07;;
1691;SDS011;843;52.054;8.552;2023-02-26T05:49:10;4.07;;;2.25;;
1691;SDS011;843;52.054;8.552;2023-02-26T05:51:37;2.30;;;1.73;;
1691;SDS011;843;52.054;8.552;2023-02-26T05:54:06;3.92;;;1.60;;
1691;SDS011;843;52.054;8.552;2023-02-26T05:56:33;2.25;;;2.03;;
1691;SDS011;843;52.054;8.552;2023-02-26T05:59:00;2.45;;;1.95;;
1691;SDS011;843;52.054;8.552;2023-02-26T06:01:27;4.22;;;2.00;;
1691;SDS011;843;52.054;8.552;2023-02-26T06:03:53;4.30;;;2.17;;
1691;SDS011;843;52.054;8.552;2023-02-26T06:06:21;3.42;;;1.88;;
1691;SDS011;843;52.054;8.552;2023-02-26T06:08:49;2.42;;;2.00;;
1691;SDS011;843;52.054;8.552;2023-02-26T06:11:16;2.55;;;1.85;;
1691;SDS011;843;52.054;8.552;2023-02-26T06:13:42;2.25;;;1.80;;
1691;SDS011;843;52.054;8.552;2023-02-26T06:16:09;8.60;;;2.00;;
1691;SDS011;843;52.054;8.552;2023-02-26T06:18:36;3.15;;;2.40;;
1691;SDS011;843;52.054;8.552;2023-02-26T06:21:03;2.67;;;1.60;;
1691;SDS011;843;52.054;8.552;2023-02-26T06:23:31;3.50;;;2.00;;
1691;SDS011;843;52.054;8.552;2023-02-26T06:25:58;2.40;;;2.20;;
1691;SDS011;843;52.054;8.552;2023-02-26T06:28:24;4.55;;;2.50;;
1691;SDS011;843;52.054;8.552;2023-02-26T06:30:51;5.87;;;2.70;;
1691;SDS011;843;52.054;8.552;2023-02-26T06:33:18;5.03;;;2.47;;
1691;SDS011;843;52.054;8.552;2023-02-26T06:35:45;3.15;;;2.45;;
1691;SDS011;843;52.054;8.552;2023-02-26T06:38:12;6.38;;;2.50;;
1691;SDS011;843;52.054;8.552;2023-02-26T06:40:40;4.65;;;3.25;;
1691;SDS011;843;52.054;8.552;2023-02-26T06:43:07;9.90;;;3.88;;
1691;SDS011;843;52.054;8.552;2023-02-26T06:45:34;8.20;;;3.00;;
1691;SDS011;843;52.054;8.552;2023-02-26T06:48:01;2.35;;;2.15;;
1691;SDS011;843;52.054;8.552;2023-02-26T06:50:27;2.55;;;1.90;;
1691;SDS011;843;52.054;8.552;2023-02-26T06:52:55;3.83;;;2.57;;
1691;SDS011;843;52.054;8.552;2023-02-26T06:55:22;8.30;;;6.10;;
1691;SDS011;843;52.054;8.552;2023-02-26T06:57:52;3.35;;;2.15;;
1691;SDS011;843;52.054;8.552;2023-02-26T07:00:19;6.60;;;4.00;;
1691;SDS011;843;52.054;8.552;2023-02-26T07:02:46;6.27;;;3.63;;
1691;SDS011;843;52.054;8.552;2023-02-26T07:05:13;3.67;;;2.60;;
1691;SDS011;843;52.054;8.552;2023-02-26T07:07:40;12.93;;;7.10;;
1691;SDS011;843;52.054;8.552;2023-02-26T07:10:07;12.63;;;6.20;;
1691;SDS011;843;52.054;8.552;2023-02-26T07:12:35;9.93;;;3.40;;
1691;SDS011;843;52.054;8.552;2023-02-26T07:15:04;2.97;;;2.03;;
1691;SDS011;843;52.054;8.552;2023-02-26T07:17:31;5.23;;;1.90;;
1691;SDS011;843;52.054;8.552;2023-02-26T07:19:58;4.30;;;1.67;;
1691;SDS011;843;52.054;8.552;2023-02-26T07:22:30;3.10;;;2.00;;
1691;SDS011;843;52.054;8.552;2023-02-26T07:24:57;5.23;;;2.03;;
1691;SDS011;843;52.054;8.552;2023-02-26T07:27:24;3.80;;;2.30;;
1691;SDS011;843;52.054;8.552;2023-02-26T07:29:51;1.80;;;1.57;;
1691;SDS011;843;52.054;8.552;2023-02-26T07:32:19;3.77;;;2.07;;
1691;SDS011;843;52.054;8.552;2023-02-26T07:34:45;5.73;;;2.17;;
1691;SDS011;843;52.054;8.552;2023-02-26T07:37:12;5.17;;;2.30;;
1691;SDS011;843;52.054;8.552;2023-02-26T07:39:39;3.50;;;1.77;;
1691;SDS011;843;52.054;8.552;2023-02-26T07:42:06;2.90;;;1.80;;
1691;SDS011;843;52.054;8.552;2023-02-26T07:44:33;3.67;;;1.90;;
1691;SDS011;843;52.054;8.552;2023-02-26T07:46:59;3.00;;;1.90;;
1691;SDS011;843;52.054;8.552;2023-02-26T07:49:27;3.33;;;1.30;;
1691;SDS011;843;52.054;8.552;2023-02-26T07:51:54;4.50;;;1.67;;
1691;SDS011;843;52.054;8.552;2023-02-26T07:54:21;2.83;;;1.70;;
1691;SDS011;843;52.054;8.552;2023-02-26T07:56:47;5.10;;;1.70;;
1691;SDS011;843;52.054;8.552;2023-02-26T07:59:14;3.43;;;1.33;;
1691;SDS011;843;52.054;8.552;2023-02-26T08:01:41;5.60;;;1.97;;
1691;SDS011;843;52.054;8.552;2023-02-26T08:04:08;8.03;;;1.30;;
1691;SDS011;843;52.054;8.552;2023-02-26T08:06:36;2.87;;;1.50;;
1691;SDS011;843;52.054;8.552;2023-02-26T08:09:02;3.10;;;1.83;;
1691;SDS011;843;52.054;8.552;2023-02-26T08:11:29;4.87;;;1.40;;
1691;SDS011;843;52.054;8.552;2023-02-26T08:13:57;2.10;;;1.43;;
1691;SDS011;843;52.054;8.552;2023-02-26T08:16:23;4.10;;;1.47;;
1691;SDS011;843;52.054;8.552;2023-02-26T08:18:50;3.87;;;1.30;;
1691;SDS011;843;52.054;8.552;2023-02-26T08:21:17;3.37;;;1.50;;
1691;SDS011;843;52.054;8.552;2023-02-26T08:23:45;3.17;;;1.70;;
1691;SDS011;843;52.054;8.552;2023-02-26T08:26:13;2.50;;;1.23;;
1691;SDS011;843;52.054;8.552;2023-02-26T08:28:39;2.30;;;1.50;;
1691;SDS011;843;52.054;8.552;2023-02-26T08:31:06;1.63;;;1.27;;
1691;SDS011;843;52.054;8.552;2023-02-26T08:33:33;2.73;;;1.37;;
1691;SDS011;843;52.054;8.552;2023-02-26T08:35:59;3.40;;;1.60;;
1691;SDS011;843;52.054;8.552;2023-02-26T08:38:26;4.30;;;1.23;;
1691;SDS011;843;52.054;8.552;2023-02-26T08:40:55;3.30;;;2.47;;
1691;SDS011;843;52.054;8.552;2023-02-26T08:43:22;3.90;;;1.70;;
1691;SDS011;843;52.054;8.552;2023-02-26T08:45:50;1.53;;;0.70;;
1691;SDS011;843;52.054;8.552;2023-02-26T08:48:17;3.57;;;1.53;;
1691;SDS011;843;52.054;8.552;2023-02-26T08:50:44;4.40;;;1.03;;
1691;SDS011;843;52.054;8.552;2023-02-26T08:53:11;1.90;;;1.10;;
1691;SDS011;843;52.054;8.552;2023-02-26T08:55:37;1.87;;;1.27;;
1691;SDS011;843;52.054;8.552;2023-02-26T08:58:05;3.20;;;1.50;;
1691;SDS011;843;52.054;8.552;2023-02-26T09:00:33;1.30;;;1.07;;
1691;SDS011;843;52.054;8.552;2023-02-26T09:02:59;5.20;;;1.23;;
1691;SDS011;843;52.054;8.552;2023-02-26T09:05:26;2.07;;;1.20;;
1691;SDS011;843;52.054;8.552;2023-02-26T09:07:53;4.40;;;1.37;;
1691;SDS011;843;52.054;8.552;2023-02-26T09:10:19;3.47;;;1.57;;
1691;SDS011;843;52.054;8.552;2023-02-26T09:12:46;3.27;;;1.47;;
1691;SDS011;843;52.054;8.552;2023-02-26T09:15:14;3.23;;;1.50;;
1691;SDS011;843;52.054;8.552;2023-02-26T09:17:41;3.80;;;1.10;;
1691;SDS011;843;52.054;8.552;2023-02-26T09:20:08;3.60;;;1.20;;
1691;SDS011;843;52.054;8.552;2023-02-26T09:22:36;4.80;;;1.30;;
1691;SDS011;843;52.054;8.552;2023-02-26T09:25:03;1.60;;;0.97;;
1691;SDS011;843;52.054;8.552;2023-02-26T09:27:30;8.50;;;1.27;;
1691;SDS011;843;52.054;8.552;2023-02-26T09:29:57;4.57;;;1.57;;
1691;SDS011;843;52.054;8.552;2023-02-26T09:32:25;2.50;;;1.20;;
1691;SDS011;843;52.054;8.552;2023-02-26T09:34:52;5.70;;;1.17;;
1691;SDS011;843;52.054;8.552;2023-02-26T09:37:18;1.90;;;1.27;;
1691;SDS011;843;52.054;8.552;2023-02-26T09:39:45;3.10;;;1.00;;
1691;SDS011;843;52.054;8.552;2023-02-26T09:42:14;5.60;;;1.10;;
1691;SDS011;843;52.054;8.552;2023-02-26T09:44:48;1.80;;;0.90;;
1691;SDS011;843;52.054;8.552;2023-02-26T09:47:18;6.97;;;1.47;;
1691;SDS011;843;52.054;8.552;2023-02-26T09:49:52;3.13;;;1.07;;
1691;SDS011;843;52.054;8.552;2023-02-26T09:52:22;1.80;;;1.00;;
1691;SDS011;843;52.054;8.552;2023-02-26T09:54:51;2.20;;;0.97;;
1691;SDS011;843;52.054;8.552;2023-02-26T09:57:25;1.50;;;0.77;;
1691;SDS011;843;52.054;8.552;2023-02-26T09:59:55;5.37;;;1.10;;
1691;SDS011;843;52.054;8.552;2023-02-26T10:02:27;3.10;;;1.20;;
1691;SDS011;843;52.054;8.552;2023-02-26T10:05:03;2.00;;;0.93;;
1691;SDS011;843;52.054;8.552;2023-02-26T10:07:39;1.17;;;0.83;;
1691;SDS011;843;52.054;8.552;2023-02-26T10:10:13;4.23;;;1.00;;
1691;SDS011;843;52.054;8.552;2023-02-26T10:12:44;1.07;;;0.90;;
1691;SDS011;843;52.054;8.552;2023-02-26T10:15:13;1.80;;;0.90;;
1691;SDS011;843;52.054;8.552;2023-02-26T10:17:44;3.07;;;1.00;;
1691;SDS011;843;52.054;8.552;2023-02-26T10:20:19;1.53;;;0.80;;
1691;SDS011;843;52.054;8.552;2023-02-26T10:22:50;2.20;;;1.00;;
1691;SDS011;843;52.054;8.552;2023-02-26T10:25:21;3.53;;;1.23;;
1691;SDS011;843;52.054;8.552;2023-02-26T10:27:52;1.60;;;0.80;;
1691;SDS011;843;52.054;8.552;2023-02-26T10:30:26;2.47;;;0.90;;
1691;SDS011;843;52.054;8.552;2023-02-26T10:32:58;3.07;;;1.50;;
1691;SDS011;843;52.054;8.552;2023-02-26T10:35:28;2.17;;;1.10;;
1691;SDS011;843;52.054;8.552;2023-02-26T10:37:58;4.57;;;2.03;;
1691;SDS011;843;52.054;8.552;2023-02-26T10:40:29;3.40;;;0.80;;
1691;SDS011;843;52.054;8.552;2023-02-26T10:42:58;1.20;;;1.00;;
1691;SDS011;843;52.054;8.552;2023-02-26T10:45:36;2.80;;;1.00;;
1691;SDS011;843;52.054;8.552;2023-02-26T10:48:12;3.60;;;1.13;;
1691;SDS011;843;52.054;8.552;2023-02-26T10:50:47;2.80;;;1.00;;
1691;SDS011;843;52.054;8.552;2023-02-26T10:53:14;3.03;;;1.10;;
1691;SDS011;843;52.054;8.552;2023-02-26T10:55:42;1.27;;;1.00;;
1691;SDS011;843;52.054;8.552;2023-02-26T10:58:11;1.20;;;1.00;;
1691;SDS011;843;52.054;8.552;2023-02-26T11:00:40;1.90;;;1.00;;
1691;SDS011;843;52.054;8.552;2023-02-26T11:03:09;2.20;;;1.00;;
1691;SDS011;843;52.054;8.552;2023-02-26T11:05:40;3.50;;;1.00;;
1691;SDS011;843;52.054;8.552;2023-02-26T11:08:10;1.20;;;0.80;;
1691;SDS011;843;52.054;8.552;2023-02-26T11:10:47;1.93;;;1.20;;
1691;SDS011;843;52.054;8.552;2023-02-26T11:13:16;1.60;;;1.10;;
1691;SDS011;843;52.054;8.552;2023-02-26T11:15:43;1.43;;;1.00;;
1691;SDS011;843;52.054;8.552;2023-02-26T11:18:13;1.63;;;0.93;;
1691;SDS011;843;52.054;8.552;2023-02-26T11:20:42;2.83;;;0.90;;
1691;SDS011;843;52.054;8.552;2023-02-26T11:23:12;1.43;;;0.90;;
1691;SDS011;843;52.054;8.552;2023-02-26T11:25:40;3.10;;;1.10;;
1691;SDS011;843;52.054;8.552;2023-02-26T11:28:09;3.03;;;0.90;;
1691;SDS011;843;52.054;8.552;2023-02-26T11:30:46;2.57;;;1.03;;
1691;SDS011;843;52.054;8.552;2023-02-26T11:33:16;1.40;;;0.87;;
1691;SDS011;843;52.054;8.552;2023-02-26T11:35:44;2.40;;;1.13;;
1691;SDS011;843;52.054;8.552;2023-02-26T11:38:15;4.10;;;0.87;;
1691;SDS011;843;52.054;8.552;2023-02-26T11:40:47;1.67;;;0.70;;
1691;SDS011;843;52.054;8.552;2023-02-26T11:43:16;0.93;;;0.73;;
1691;SDS011;843;52.054;8.552;2023-02-26T11:45:45;1.60;;;0.87;;
1691;SDS011;843;52.054;8.552;2023-02-26T11:48:14;3.63;;;1.00;;
1691;SDS011;843;52.054;8.552;2023-02-26T11:50:45;1.20;;;0.90;;
1691;SDS011;843;52.054;8.552;2023-02-26T11:53:18;1.90;;;1.20;;
1691;SDS011;843;52.054;8.552;2023-02-26T11:55:50;5.20;;;0.90;;
1691;SDS011;843;52.054;8.552;2023-02-26T11:58:18;2.50;;;1.00;;
1691;SDS011;843;52.054;8.552;2023-02-26T12:00:48;0.97;;;0.77;;
1691;SDS011;843;52.054;8.552;2023-02-26T12:03:19;1.53;;;1.20;;
1691;SDS011;843;52.054;8.552;2023-02-26T12:05:47;1.40;;;1.10;;
1691;SDS011;843;52.054;8.552;2023-02-26T12:08:16;2.67;;;0.90;;
1691;SDS011;843;52.054;8.552;2023-02-26T12:10:48;4.87;;;1.27;;
1691;SDS011;843;52.054;8.552;2023-02-26T12:13:21;1.57;;;0.87;;
1691;SDS011;843;52.054;8.552;2023-02-26T12:15:53;2.33;;;1.00;;
1691;SDS011;843;52.054;8.552;2023-02-26T12:18:29;1.93;;;1.30;;
1691;SDS011;843;52.054;8.552;2023-02-26T12:21:11;2.43;;;1.37;;
1691;SDS011;843;52.054;8.552;2023-02-26T12:26:37;3.83;;;1.20;;
1691;SDS011;843;52.054;8.552;2023-02-26T12:29:16;2.40;;;1.00;;
1691;SDS011;843;52.054;8.552;2023-02-26T12:31:55;1.07;;;1.00;;
1691;SDS011;843;52.054;8.552;2023-02-26T12:34:53;2.20;;;1.70;;
1691;SDS011;843;52.054;8.552;2023-02-26T12:37:34;1.07;;;0.90;;
1691;SDS011;843;52.054;8.552;2023-02-26T12:40:14;2.33;;;1.20;;
1691;SDS011;843;52.054;8.552;2023-02-26T12:42:56;3.77;;;0.90;;
1691;SDS011;843;52.054;8.552;2023-02-26T12:45:29;2.10;;;1.07;;
1691;SDS011;843;52.054;8.552;2023-02-26T12:48:12;5.03;;;1.33;;
1691;SDS011;843;52.054;8.552;2023-02-26T12:50:54;4.50;;;1.73;;
1691;SDS011;843;52.054;8.552;2023-02-26T12:53:32;4.60;;;1.60;;
1691;SDS011;843;52.054;8.552;2023-02-26T12:59:01;5.20;;;1.60;;
1691;SDS011;843;52.054;8.552;2023-02-26T13:01:40;1.83;;;1.20;;
1691;SDS011;843;52.054;8.552;2023-02-26T13:04:19;4.57;;;1.70;;
1691;SDS011;843;52.054;8.552;2023-02-26T13:10:04;3.33;;;1.53;;
1691;SDS011;843;52.054;8.552;2023-02-26T13:12:41;2.03;;;1.20;;
1691;SDS011;843;52.054;8.552;2023-02-26T13:15:18;1.30;;;1.20;;
1691;SDS011;843;52.054;8.552;2023-02-26T13:17:55;1.63;;;1.27;;
1691;SDS011;843;52.054;8.552;2023-02-26T13:20:26;2.70;;;1.23;;
1691;SDS011;843;52.054;8.552;2023-02-26T13:22:54;4.43;;;1.30;;
1691;SDS011;843;52.054;8.552;2023-02-26T13:25:24;2.83;;;2.00;;
1691;SDS011;843;52.054;8.552;2023-02-26T13:27:57;3.17;;;1.90;;
1691;SDS011;843;52.054;8.552;2023-02-26T13:30:26;4.30;;;1.60;;
1691;SDS011;843;52.054;8.552;2023-02-26T13:32:56;3.63;;;1.93;;
1691;SDS011;843;52.054;8.552;2023-02-26T13:35:25;4.07;;;2.80;;
1691;SDS011;843;52.054;8.552;2023-02-26T13:37:54;2.10;;;1.20;;
1691;SDS011;843;52.054;8.552;2023-02-26T13:40:33;3.30;;;3.00;;
1691;SDS011;843;52.054;8.552;2023-02-26T13:43:13;2.20;;;1.20;;
1691;SDS011;843;52.054;8.552;2023-02-26T13:45:47;1.73;;;1.23;;
1691;SDS011;843;52.054;8.552;2023-02-26T13:48:22;2.83;;;1.30;;
1691;SDS011;843;52.054;8.552;2023-02-26T13:50:56;1.47;;;1.37;;
1691;SDS011;843;52.054;8.552;2023-02-26T13:53:45;4.10;;;1.60;;
1691;SDS011;843;52.054;8.552;2023-02-26T13:56:15;3.17;;;1.47;;
1691;SDS011;843;52.054;8.552;2023-02-26T13:58:47;2.40;;;1.57;;
1691;SDS011;843;52.054;8.552;2023-02-26T14:01:17;2.00;;;1.80;;
1691;SDS011;843;52.054;8.552;2023-02-26T14:03:46;3.87;;;1.70;;
1691;SDS011;843;52.054;8.552;2023-02-26T14:12:00;1.67;;;1.47;;
1691;SDS011;843;52.054;8.552;2023-02-26T14:14:43;1.30;;;1.20;;
1691;SDS011;843;52.054;8.552;2023-02-26T14:20:15;1.87;;;1.20;;
1691;SDS011;843;52.054;8.552;2023-02-26T14:22:47;5.93;;;2.60;;
1691;SDS011;843;52.054;8.552;2023-02-26T14:25:18;2.90;;;1.20;;
1691;SDS011;843;52.054;8.552;2023-02-26T14:27:47;2.87;;;1.20;;
1691;SDS011;843;52.054;8.552;2023-02-26T14:30:17;2.60;;;1.20;;
1691;SDS011;843;52.054;8.552;2023-02-26T14:32:46;1.40;;;1.30;;
1691;SDS011;843;52.054;8.552;2023-02-26T14:35:15;4.70;;;1.40;;
1691;SDS011;843;52.054;8.552;2023-02-26T14:37:45;2.67;;;1.47;;
1691;SDS011;843;52.054;8.552;2023-02-26T14:40:16;2.40;;;1.30;;
1691;SDS011;843;52.054;8.552;2023-02-26T14:42:45;2.83;;;1.30;;
1691;SDS011;843;52.054;8.552;2023-02-26T14:45:22;1.60;;;1.40;;
1691;SDS011;843;52.054;8.552;2023-02-26T14:48:01;2.87;;;1.40;;
1691;SDS011;843;52.054;8.552;2023-02-26T14:50:30;1.77;;;1.23;;
1691;SDS011;843;52.054;8.552;2023-02-26T14:53:09;2.03;;;1.53;;
1691;SDS011;843;52.054;8.552;2023-02-26T14:56:01;1.80;;;1.00;;
1691;SDS011;843;52.054;8.552;2023-02-26T15:01:42;2.80;;;1.50;;
1691;SDS011;843;52.054;8.552;2023-02-26T15:07:10;1.83;;;1.30;;
1691;SDS011;843;52.054;8.552;2023-02-26T15:09:47;1.30;;;1.20;;
1691;SDS011;843;52.054;8.552;2023-02-26T15:12:24;1.30;;;1.10;;
1691;SDS011;843;52.054;8.552;2023-02-26T15:15:02;2.00;;;1.40;;
1691;SDS011;843;52.054;8.552;2023-02-26T15:17:41;3.07;;;1.30;;
1691;SDS011;843;52.054;8.552;2023-02-26T15:20:17;7.47;;;5.57;;
1691;SDS011;843;52.054;8.552;2023-02-26T15:22:52;3.70;;;2.50;;
1691;SDS011;843;52.054;8.552;2023-02-26T15:25:39;3.10;;;1.60;;
1691;SDS011;843;52.054;8.552;2023-02-26T15:28:09;2.60;;;2.37;;
1691;SDS011;843;52.054;8.552;2023-02-26T15:30:40;2.30;;;1.60;;
1691;SDS011;843;52.054;8.552;2023-02-26T15:33:11;2.27;;;1.80;;
1691;SDS011;843;52.054;8.552;2023-02-26T15:35:41;3.17;;;1.20;;
1691;SDS011;843;52.054;8.552;2023-02-26T15:38:08;2.50;;;1.20;;
1691;SDS011;843;52.054;8.552;2023-02-26T15:40:35;2.20;;;1.07;;
1691;SDS011;843;52.054;8.552;2023-02-26T15:43:02;1.90;;;1.27;;
1691;SDS011;843;52.054;8.552;2023-02-26T15:45:31;2.77;;;1.10;;
1691;SDS011;843;52.054;8.552;2023-02-26T15:48:01;1.33;;;1.00;;
1691;SDS011;843;52.054;8.552;2023-02-26T15:50:32;1.40;;;1.30;;
1691;SDS011;843;52.054;8.552;2023-02-26T15:53:01;1.50;;;1.17;;
1691;SDS011;843;52.054;8.552;2023-02-26T15:55:30;3.80;;;1.40;;
1691;SDS011;843;52.054;8.552;2023-02-26T15:57:58;2.53;;;1.10;;
1691;SDS011;843;52.054;8.552;2023-02-26T16:00:26;1.97;;;1.10;;
1691;SDS011;843;52.054;8.552;2023-02-26T16:02:53;1.47;;;1.37;;
1691;SDS011;843;52.054;8.552;2023-02-26T16:05:21;4.20;;;1.20;;
1691;SDS011;843;52.054;8.552;2023-02-26T16:07:49;1.50;;;1.30;;
1691;SDS011;843;52.054;8.552;2023-02-26T16:10:17;2.40;;;1.27;;
1691;SDS011;843;52.054;8.552;2023-02-26T16:12:53;3.30;;;2.17;;
1691;SDS011;843;52.054;8.552;2023-02-26T16:15:23;2.73;;;2.00;;